sensor_id;sensor_type;location;lat;lon;timestamp;pressure;altitude;pressure_sealevel;temperature;humidity
50590;BME280;36547;50.514;30.840;2023-05-23T00:00:32;100073.75;;;16.47;52.29
50590;BME280;36547;50.514;30.840;2023-05-23T00:01:35;100074.50;;;16.49;52.42
50590;BME280;36547;50.514;30.840;2023-05-23T00:02:38;100074.50;;;16.49;52.48
50590;BME280;36547;50.514;30.840;2023-05-23T00:03:40;100066.67;;;16.46;52.47
50590;BME280;36547;50.514;30.840;2023-05-23T00:04:43;100074.72;;;16.46;52.44
50590;BME280;36547;50.514;30.840;2023-05-23T00:05:45;100065.70;;;16.47;52.34
50590;BME280;36547;50.514;30.840;2023-05-23T00:06:47;100072.05;;;16.46;52.35
50590;BME280;36547;50.514;30.840;2023-05-23T00:07:49;100070.59;;;16.42;52.54
50590;BME280;36547;50.514;30.840;2023-05-23T00:08:51;100073.02;;;16.45;52.48
50590;BME280;36547;50.514;30.840;2023-05-23T00:09:54;100067.91;;;16.42;52.40
50590;BME280;36547;50.514;30.840;2023-05-23T00:10:56;100068.88;;;16.41;52.55
50590;BME280;36547;50.514;30.840;2023-05-23T00:11:59;100061.69;;;16.41;52.42
50590;BME280;36547;50.514;30.840;2023-05-23T00:13:01;100060.09;;;16.39;52.37
50590;BME280;36547;50.514;30.840;2023-05-23T00:14:03;100057.41;;;16.39;52.58
50590;BME280;36547;50.514;30.840;2023-05-23T00:15:06;100059.36;;;16.37;52.62
50590;BME280;36547;50.514;30.840;2023-05-23T00:16:09;100055.81;;;16.36;52.48
50590;BME280;36547;50.514;30.840;2023-05-23T00:17:12;100053.25;;;16.35;52.38
50590;BME280;36547;50.514;30.840;2023-05-23T00:18:14;100049.94;;;16.31;52.50
50590;BME280;36547;50.514;30.840;2023-05-23T00:19:16;100055.45;;;16.30;52.64
50590;BME280;36547;50.514;30.840;2023-05-23T00:20:19;100048.12;;;16.32;52.58
50590;BME280;36547;50.514;30.840;2023-05-23T00:21:21;100049.23;;;16.29;52.57
50590;BME280;36547;50.514;30.840;2023-05-23T00:22:23;100046.41;;;16.31;52.64
50590;BME280;36547;50.514;30.840;2023-05-23T00:23:26;100050.09;;;16.30;52.69
50590;BME280;36547;50.514;30.840;2023-05-23T00:24:28;100048.38;;;16.29;52.53
50590;BME280;36547;50.514;30.840;2023-05-23T00:25:31;100045.70;;;16.29;52.80
50590;BME280;36547;50.514;30.840;2023-05-23T00:26:33;100043.47;;;16.22;52.84
50590;BME280;36547;50.514;30.840;2023-05-23T00:27:36;100042.27;;;16.26;52.77
50590;BME280;36547;50.514;30.840;2023-05-23T00:28:38;100044.22;;;16.24;52.76
50590;BME280;36547;50.514;30.840;2023-05-23T00:29:41;100043.24;;;16.25;52.76
50590;BME280;36547;50.514;30.840;2023-05-23T00:30:44;100040.79;;;16.22;52.91
50590;BME280;36547;50.514;30.840;2023-05-23T00:31:46;100040.91;;;16.21;52.83
50590;BME280;36547;50.514;30.840;2023-05-23T00:32:49;100042.73;;;16.20;53.02
50590;BME280;36547;50.514;30.840;2023-05-23T00:33:51;100049.80;;;16.21;52.85
50590;BME280;36547;50.514;30.840;2023-05-23T00:34:53;100038.22;;;16.21;52.91
50590;BME280;36547;50.514;30.840;2023-05-23T00:35:55;100042.95;;;16.17;52.92
50590;BME280;36547;50.514;30.840;2023-05-23T00:36:58;100049.29;;;16.16;53.03
50590;BME280;36547;50.514;30.840;2023-05-23T00:38:00;100043.92;;;16.16;52.86
50590;BME280;36547;50.514;30.840;2023-05-23T00:39:02;100042.95;;;16.17;52.88
50590;BME280;36547;50.514;30.840;2023-05-23T00:40:06;100045.75;;;16.16;53.00
50590;BME280;36547;50.514;30.840;2023-05-23T00:41:09;100044.08;;;16.15;53.06
50590;BME280;36547;50.514;30.840;2023-05-23T00:42:11;100042.36;;;16.14;53.09
50590;BME280;36547;50.514;30.840;2023-05-23T00:43:14;100044.19;;;16.13;53.18
50590;BME280;36547;50.514;30.840;2023-05-23T00:44:16;100046.87;;;16.13;53.32
50590;BME280;36547;50.514;30.840;2023-05-23T00:45:18;100044.19;;;16.13;53.03
50590;BME280;36547;50.514;30.840;2023-05-23T00:46:21;100041.51;;;16.13;53.12
50590;BME280;36547;50.514;30.840;2023-05-23T00:47:23;100046.87;;;16.13;53.33
50590;BME280;36547;50.514;30.840;2023-05-23T00:48:26;100039.80;;;16.12;53.39
50590;BME280;36547;50.514;30.840;2023-05-23T00:49:30;100047.09;;;16.10;53.38
50590;BME280;36547;50.514;30.840;2023-05-23T00:50:32;100050.75;;;16.09;53.34
50590;BME280;36547;50.514;30.840;2023-05-23T00:51:35;100045.61;;;16.06;53.66
50590;BME280;36547;50.514;30.840;2023-05-23T00:52:37;100041.96;;;16.07;53.45
50590;BME280;36547;50.514;30.840;2023-05-23T00:53:41;100044.76;;;16.06;53.61
50590;BME280;36547;50.514;30.840;2023-05-23T00:54:44;100046.58;;;16.05;53.61
50590;BME280;36547;50.514;30.840;2023-05-23T00:55:46;100042.30;;;16.03;53.64
50590;BME280;36547;50.514;30.840;2023-05-23T00:56:49;100043.90;;;16.05;53.64
50590;BME280;36547;50.514;30.840;2023-05-23T00:57:53;100042.19;;;16.04;53.57
50590;BME280;36547;50.514;30.840;2023-05-23T00:58:56;100038.05;;;16.00;53.58
50590;BME280;36547;50.514;30.840;2023-05-23T01:00:00;100038.77;;;16.02;53.60
50590;BME280;36547;50.514;30.840;2023-05-23T01:01:03;100034.74;;;15.97;53.77
50590;BME280;36547;50.514;30.840;2023-05-23T01:02:05;100033.66;;;15.99;53.95
50590;BME280;36547;50.514;30.840;2023-05-23T01:03:08;100024.25;;;15.94;53.69
50590;BME280;36547;50.514;30.840;2023-05-23T01:04:11;100027.16;;;15.90;54.21
50590;BME280;36547;50.514;30.840;2023-05-23T01:05:15;100028.98;;;15.90;54.20
50590;BME280;36547;50.514;30.840;2023-05-23T01:06:19;100030.69;;;15.91;54.00
50590;BME280;36547;50.514;30.840;2023-05-23T01:07:21;100033.48;;;15.89;54.13
50590;BME280;36547;50.514;30.840;2023-05-23T01:08:23;100033.37;;;15.91;54.04
50590;BME280;36547;50.514;30.840;2023-05-23T01:09:27;100029.20;;;15.87;54.01
50590;BME280;36547;50.514;30.840;2023-05-23T01:10:31;100039.10;;;15.86;54.13
50590;BME280;36547;50.514;30.840;2023-05-23T01:11:38;100032.88;;;15.86;54.36
50590;BME280;36547;50.514;30.840;2023-05-23T01:13:58;100034.94;;;15.82;54.32
50590;BME280;36547;50.514;30.840;2023-05-23T01:15:06;100030.66;;;15.80;54.71
50590;BME280;36547;50.514;30.840;2023-05-23T01:18:39;100026.30;;;15.90;54.87
50590;BME280;36547;50.514;30.840;2023-05-23T01:19:54;100036.19;;;15.66;54.57
50590;BME280;36547;50.514;30.840;2023-05-23T01:21:05;100029.53;;;15.71;54.69
50590;BME280;36547;50.514;30.840;2023-05-23T01:24:42;100029.12;;;15.65;55.01
50590;BME280;36547;50.514;30.840;2023-05-23T01:27:00;100025.25;;;15.69;55.12
50590;BME280;36547;50.514;30.840;2023-05-23T01:28:04;100022.05;;;15.64;55.22
50590;BME280;36547;50.514;30.840;2023-05-23T01:29:12;100033.52;;;15.66;54.85
50590;BME280;36547;50.514;30.840;2023-05-23T01:30:17;100026.44;;;15.65;55.18
50590;BME280;36547;50.514;30.840;2023-05-23T01:31:23;100019.48;;;15.62;54.88
50590;BME280;36547;50.514;30.840;2023-05-23T01:32:27;100029.34;;;15.62;54.81
50590;BME280;36547;50.514;30.840;2023-05-23T01:33:31;100032.13;;;15.60;55.25
50590;BME280;36547;50.514;30.840;2023-05-23T01:34:35;100025.06;;;15.59;55.41
50590;BME280;36547;50.514;30.840;2023-05-23T01:35:38;100024.20;;;15.59;55.46
50590;BME280;36547;50.514;30.840;2023-05-23T01:36:42;100024.35;;;15.57;55.16
50590;BME280;36547;50.514;30.840;2023-05-23T01:37:45;100017.17;;;15.58;55.08
50590;BME280;36547;50.514;30.840;2023-05-23T01:38:47;100022.94;;;15.51;55.50
50590;BME280;36547;50.514;30.840;2023-05-23T01:39:49;100021.97;;;15.52;55.43
50590;BME280;36547;50.514;30.840;2023-05-23T01:40:53;100025.95;;;15.47;55.29
50590;BME280;36547;50.514;30.840;2023-05-23T01:41:55;100018.88;;;15.46;55.62
50590;BME280;36547;50.514;30.840;2023-05-23T01:42:57;100019.52;;;15.49;55.63
50590;BME280;36547;50.514;30.840;2023-05-23T01:44:02;100023.27;;;15.47;56.03
50590;BME280;36547;50.514;30.840;2023-05-23T01:45:06;100028.52;;;15.48;56.02
50590;BME280;36547;50.514;30.840;2023-05-23T01:46:10;100022.41;;;15.46;55.97
50590;BME280;36547;50.514;30.840;2023-05-23T01:47:13;100019.24;;;15.41;56.20
50590;BME280;36547;50.514;30.840;2023-05-23T01:48:17;100023.11;;;15.37;56.09
50590;BME280;36547;50.514;30.840;2023-05-23T01:49:21;100024.59;;;15.41;56.00
50590;BME280;36547;50.514;30.840;2023-05-23T01:50:27;100025.56;;;15.40;56.17
50590;BME280;36547;50.514;30.840;2023-05-23T01:51:30;100025.14;;;15.34;56.14
50590;BME280;36547;50.514;30.840;2023-05-23T01:52:33;100026.22;;;15.31;56.31
50590;BME280;36547;50.514;30.840;2023-05-23T01:53:36;100018.44;;;15.28;56.11
50590;BME280;36547;50.514;30.840;2023-05-23T01:54:39;100023.16;;;15.25;56.28
50590;BME280;36547;50.514;30.840;2023-05-23T01:55:42;100022.83;;;15.29;56.41
50590;BME280;36547;50.514;30.840;2023-05-23T01:56:45;100016.83;;;15.26;56.28
50590;BME280;36547;50.514;30.840;2023-05-23T01:57:50;100029.58;;;15.22;56.23
50590;BME280;36547;50.514;30.840;2023-05-23T01:58:53;100021.55;;;15.22;56.52
50590;BME280;36547;50.514;30.840;2023-05-23T01:59:56;100019.94;;;15.19;56.71
50590;BME280;36547;50.514;30.840;2023-05-23T02:00:59;100020.91;;;15.18;56.82
50590;BME280;36547;50.514;30.840;2023-05-23T02:02:02;100020.05;;;15.18;56.84
50590;BME280;36547;50.514;30.840;2023-05-23T02:03:05;100026.38;;;15.17;56.40
50590;BME280;36547;50.514;30.840;2023-05-23T02:04:09;100026.48;;;15.15;56.41
50590;BME280;36547;50.514;30.840;2023-05-23T02:05:11;100031.97;;;15.14;56.72
50590;BME280;36547;50.514;30.840;2023-05-23T02:06:14;100022.23;;;15.13;56.30
50590;BME280;36547;50.514;30.840;2023-05-23T02:07:16;100022.12;;;15.14;56.42
50590;BME280;36547;50.514;30.840;2023-05-23T02:08:20;100029.52;;;15.11;56.95
50590;BME280;36547;50.514;30.840;2023-05-23T02:09:23;100029.52;;;15.11;56.97
50590;BME280;36547;50.514;30.840;2023-05-23T02:10:25;100022.66;;;15.07;57.11
50590;BME280;36547;50.514;30.840;2023-05-23T02:11:27;100024.59;;;15.05;57.00
50590;BME280;36547;50.514;30.840;2023-05-23T02:12:30;100020.20;;;15.04;57.08
50590;BME280;36547;50.514;30.840;2023-05-23T02:13:33;100022.98;;;15.02;57.14
50590;BME280;36547;50.514;30.840;2023-05-23T02:14:36;100026.97;;;14.97;57.11
50590;BME280;36547;50.514;30.840;2023-05-23T02:15:38;100023.66;;;14.93;57.24
50590;BME280;36547;50.514;30.840;2023-05-23T02:16:41;100028.91;;;14.95;57.44
50590;BME280;36547;50.514;30.840;2023-05-23T02:17:44;100020.34;;;14.90;57.48
50590;BME280;36547;50.514;30.840;2023-05-23T02:18:46;100017.16;;;14.84;57.68
50590;BME280;36547;50.514;30.840;2023-05-23T02:19:48;100014.34;;;14.86;57.58
50590;BME280;36547;50.514;30.840;2023-05-23T02:20:51;100015.95;;;14.89;57.27
50590;BME280;36547;50.514;30.840;2023-05-23T02:21:54;100012.52;;;14.86;57.51
50590;BME280;36547;50.514;30.840;2023-05-23T02:22:56;100015.84;;;14.90;57.51
50590;BME280;36547;50.514;30.840;2023-05-23T02:23:58;100006.95;;;14.90;57.54
50590;BME280;36547;50.514;30.840;2023-05-23T02:25:01;100010.48;;;14.90;57.70
50590;BME280;36547;50.514;30.840;2023-05-23T02:26:03;100018.41;;;14.92;57.46
50590;BME280;36547;50.514;30.840;2023-05-23T02:27:05;100007.70;;;14.92;57.57
50590;BME280;36547;50.514;30.840;2023-05-23T02:28:08;100018.41;;;14.92;57.84
50590;BME280;36547;50.514;30.840;2023-05-23T02:29:10;100013.92;;;14.92;57.76
50590;BME280;36547;50.514;30.840;2023-05-23T02:30:14;100016.48;;;14.94;57.90
50590;BME280;36547;50.514;30.840;2023-05-23T02:31:16;100011.34;;;14.91;57.79
50590;BME280;36547;50.514;30.840;2023-05-23T02:32:19;100014.77;;;14.93;57.78
50590;BME280;36547;50.514;30.840;2023-05-23T02:33:21;100004.71;;;14.96;57.71
50590;BME280;36547;50.514;30.840;2023-05-23T02:34:23;100013.70;;;14.95;57.92
50590;BME280;36547;50.514;30.840;2023-05-23T02:35:27;100016.27;;;14.97;57.80
50590;BME280;36547;50.514;30.840;2023-05-23T02:36:29;100011.42;;;15.02;57.93
50590;BME280;36547;50.514;30.840;2023-05-23T02:37:32;100014.95;;;15.02;57.64
50590;BME280;36547;50.514;30.840;2023-05-23T02:38:34;100014.09;;;15.02;58.05
50590;BME280;36547;50.514;30.840;2023-05-23T02:39:36;100017.63;;;15.02;58.00
50590;BME280;36547;50.514;30.840;2023-05-23T02:40:39;100012.17;;;15.04;58.04
50590;BME280;36547;50.514;30.840;2023-05-23T02:41:41;100008.53;;;15.05;57.89
50590;BME280;36547;50.514;30.840;2023-05-23T02:42:43;100014.09;;;15.02;58.10
50590;BME280;36547;50.514;30.840;2023-05-23T02:43:46;100010.45;;;15.03;58.03
50590;BME280;36547;50.514;30.840;2023-05-23T02:44:50;100008.53;;;15.05;57.94
50590;BME280;36547;50.514;30.840;2023-05-23T02:45:52;100007.03;;;15.01;57.91
50590;BME280;36547;50.514;30.840;2023-05-23T02:46:54;100013.23;;;15.01;58.00
50590;BME280;36547;50.514;30.840;2023-05-23T02:47:57;100004.14;;;15.04;57.84
50590;BME280;36547;50.514;30.840;2023-05-23T02:48:59;100010.70;;;15.00;58.30
50590;BME280;36547;50.514;30.840;2023-05-23T02:50:02;100012.38;;;15.01;58.55
50590;BME280;36547;50.514;30.840;2023-05-23T02:51:04;100012.38;;;15.01;58.21
50590;BME280;36547;50.514;30.840;2023-05-23T02:52:07;100007.78;;;15.03;58.04
50590;BME280;36547;50.514;30.840;2023-05-23T02:53:09;100005.35;;;15.00;58.19
50590;BME280;36547;50.514;30.840;2023-05-23T02:54:12;100002.53;;;15.01;58.28
50590;BME280;36547;50.514;30.840;2023-05-23T02:55:14;100008.03;;;15.00;58.50
50590;BME280;36547;50.514;30.840;2023-05-23T02:56:19;100014.09;;;15.02;58.52
50590;BME280;36547;50.514;30.840;2023-05-23T02:57:21;100008.99;;;14.99;58.64
50590;BME280;36547;50.514;30.840;2023-05-23T02:58:24;100016.06;;;15.00;58.73
50590;BME280;36547;50.514;30.840;2023-05-23T02:59:26;100009.84;;;14.99;58.46
50590;BME280;36547;50.514;30.840;2023-05-23T03:00:29;100005.35;;;15.00;58.58
50590;BME280;36547;50.514;30.840;2023-05-23T03:01:31;100006.53;;;14.96;58.71
50590;BME280;36547;50.514;30.840;2023-05-23T03:02:33;100005.35;;;15.00;58.70
50590;BME280;36547;50.514;30.840;2023-05-23T03:03:36;100004.25;;;15.02;58.62
50590;BME280;36547;50.514;30.840;2023-05-23T03:04:38;100010.45;;;15.03;58.62
50590;BME280;36547;50.514;30.840;2023-05-23T03:05:41;100010.13;;;15.07;58.37
50590;BME280;36547;50.514;30.840;2023-05-23T03:06:44;100002.42;;;15.03;58.37
50590;BME280;36547;50.514;30.840;2023-05-23T03:07:47;100012.17;;;15.04;58.52
50590;BME280;36547;50.514;30.840;2023-05-23T03:08:49;100006.60;;;15.07;58.49
50590;BME280;36547;50.514;30.840;2023-05-23T03:09:51;100001.46;;;15.04;58.09
50590;BME280;36547;50.514;30.840;2023-05-23T03:10:54;100008.53;;;15.05;57.90
50590;BME280;36547;50.514;30.840;2023-05-23T03:11:57;99997.82;;;15.05;58.03
50590;BME280;36547;50.514;30.840;2023-05-23T03:13:00;100003.92;;;15.07;57.58
50590;BME280;36547;50.514;30.840;2023-05-23T03:14:02;100005.10;;;15.03;57.70
50590;BME280;36547;50.514;30.840;2023-05-23T03:15:05;100004.89;;;15.06;57.79
50590;BME280;36547;50.514;30.840;2023-05-23T03:16:09;100000.39;;;15.06;57.67
50590;BME280;36547;50.514;30.840;2023-05-23T03:17:12;100000.50;;;15.05;58.15
50590;BME280;36547;50.514;30.840;2023-05-23T03:18:15;100000.61;;;15.03;58.06
50590;BME280;36547;50.514;30.840;2023-05-23T03:19:17;100001.46;;;15.04;57.95
50590;BME280;36547;50.514;30.840;2023-05-23T03:20:20;100001.25;;;15.07;57.81
50590;BME280;36547;50.514;30.840;2023-05-23T03:21:23;99995.89;;;15.07;57.81
50590;BME280;36547;50.514;30.840;2023-05-23T03:22:26;99996.11;;;15.04;57.99
50590;BME280;36547;50.514;30.840;2023-05-23T03:23:29;100004.89;;;15.06;58.02
50590;BME280;36547;50.514;30.840;2023-05-23T03:24:31;99996.97;;;15.04;58.15
50590;BME280;36547;50.514;30.840;2023-05-23T03:25:33;99997.82;;;15.05;58.30
50590;BME280;36547;50.514;30.840;2023-05-23T03:26:35;100000.50;;;15.05;58.01
50590;BME280;36547;50.514;30.840;2023-05-23T03:27:38;100005.53;;;15.09;58.20
50590;BME280;36547;50.514;30.840;2023-05-23T03:28:40;100008.20;;;15.09;58.27
50590;BME280;36547;50.514;30.840;2023-05-23T03:29:43;100001.03;;;15.10;58.79
50590;BME280;36547;50.514;30.840;2023-05-23T03:30:45;100005.53;;;15.09;58.84
50590;BME280;36547;50.514;30.840;2023-05-23T03:31:48;99998.36;;;15.10;58.64
50590;BME280;36547;50.514;30.840;2023-05-23T03:32:51;100007.23;;;15.10;58.72
50590;BME280;36547;50.514;30.840;2023-05-23T03:33:53;100011.73;;;15.10;58.85
50590;BME280;36547;50.514;30.840;2023-05-23T03:34:55;100004.67;;;15.09;58.54
50590;BME280;36547;50.514;30.840;2023-05-23T03:35:58;100013.45;;;15.11;58.34
50590;BME280;36547;50.514;30.840;2023-05-23T03:37:00;100009.17;;;15.08;58.22
50590;BME280;36547;50.514;30.840;2023-05-23T03:38:03;100001.03;;;15.10;58.14
50590;BME280;36547;50.514;30.840;2023-05-23T03:39:05;100008.09;;;15.11;58.52
50590;BME280;36547;50.514;30.840;2023-05-23T03:40:09;100002.75;;;15.11;58.38
50590;BME280;36547;50.514;30.840;2023-05-23T03:41:12;100005.20;;;15.14;58.52
50590;BME280;36547;50.514;30.840;2023-05-23T03:42:16;100009.70;;;15.13;58.48
50590;BME280;36547;50.514;30.840;2023-05-23T03:43:19;100009.56;;;15.15;58.45
50590;BME280;36547;50.514;30.840;2023-05-23T03:44:23;100007.63;;;15.17;58.21
50590;BME280;36547;50.514;30.840;2023-05-23T03:45:25;100014.91;;;15.15;58.36
50590;BME280;36547;50.514;30.840;2023-05-23T03:46:27;100012.98;;;15.17;58.43
50590;BME280;36547;50.514;30.840;2023-05-23T03:47:30;100012.02;;;15.18;58.68
50590;BME280;36547;50.514;30.840;2023-05-23T03:48:35;100007.63;;;15.17;58.87
50590;BME280;36547;50.514;30.840;2023-05-23T03:49:37;100009.34;;;15.18;59.10
50590;BME280;36547;50.514;30.840;2023-05-23T03:50:40;100011.06;;;15.19;59.19
50590;BME280;36547;50.514;30.840;2023-05-23T03:51:42;100003.88;;;15.19;59.25
50590;BME280;36547;50.514;30.840;2023-05-23T03:52:46;100003.99;;;15.18;59.63
50590;BME280;36547;50.514;30.840;2023-05-23T03:53:49;100008.38;;;15.19;59.41
50590;BME280;36547;50.514;30.840;2023-05-23T03:54:52;100005.70;;;15.19;59.34
50590;BME280;36547;50.514;30.840;2023-05-23T03:55:55;100009.13;;;15.21;59.53
50590;BME280;36547;50.514;30.840;2023-05-23T03:56:58;100007.41;;;15.20;59.49
50590;BME280;36547;50.514;30.840;2023-05-23T03:58:00;99998.42;;;15.21;59.46
50590;BME280;36547;50.514;30.840;2023-05-23T03:59:03;100004.52;;;15.23;59.37
50590;BME280;36547;50.514;30.840;2023-05-23T04:00:07;100007.20;;;15.23;59.46
50590;BME280;36547;50.514;30.840;2023-05-23T04:01:12;100006.45;;;15.21;59.70
50590;BME280;36547;50.514;30.840;2023-05-23T04:02:14;100012.33;;;15.26;59.72
50590;BME280;36547;50.514;30.840;2023-05-23T04:03:18;100009.66;;;15.26;59.48
50590;BME280;36547;50.514;30.840;2023-05-23T04:04:21;100008.69;;;15.27;59.35
50590;BME280;36547;50.514;30.840;2023-05-23T04:05:24;100004.08;;;15.29;59.30
50590;BME280;36547;50.514;30.840;2023-05-23T04:06:26;100007.72;;;15.28;59.19
50590;BME280;36547;50.514;30.840;2023-05-23T04:07:29;100004.91;;;15.30;59.32
50590;BME280;36547;50.514;30.840;2023-05-23T04:08:32;100002.23;;;15.30;59.75
50590;BME280;36547;50.514;30.840;2023-05-23T04:09:35;100002.23;;;15.30;59.42
50590;BME280;36547;50.514;30.840;2023-05-23T04:10:40;100005.55;;;15.33;59.32
50590;BME280;36547;50.514;30.840;2023-05-23T04:11:43;100007.14;;;15.36;59.63
50590;BME280;36547;50.514;30.840;2023-05-23T04:12:45;100002.64;;;15.36;59.62
50590;BME280;36547;50.514;30.840;2023-05-23T04:13:49;100006.18;;;15.37;59.65
50590;BME280;36547;50.514;30.840;2023-05-23T04:14:52;100005.33;;;15.36;59.69
50590;BME280;36547;50.514;30.840;2023-05-23T04:15:54;100008.64;;;15.40;59.76
50590;BME280;36547;50.514;30.840;2023-05-23T04:16:57;100005.00;;;15.41;59.77
50590;BME280;36547;50.514;30.840;2023-05-23T04:18:00;100019.98;;;15.43;59.66
50590;BME280;36547;50.514;30.840;2023-05-23T04:19:02;100010.09;;;15.44;59.84
50590;BME280;36547;50.514;30.840;2023-05-23T04:20:08;100009.98;;;15.45;59.39
50590;BME280;36547;50.514;30.840;2023-05-23T04:21:10;100009.87;;;15.47;59.28
50590;BME280;36547;50.514;30.840;2023-05-23T04:22:15;100009.77;;;15.48;58.91
50590;BME280;36547;50.514;30.840;2023-05-23T04:23:18;100006.02;;;15.51;58.92
50590;BME280;36547;50.514;30.840;2023-05-23T04:24:22;100012.00;;;15.54;59.29
50590;BME280;36547;50.514;30.840;2023-05-23T04:25:24;100007.42;;;15.57;59.73
50590;BME280;36547;50.514;30.840;2023-05-23T04:26:28;100009.13;;;15.58;59.84
50590;BME280;36547;50.514;30.840;2023-05-23T04:27:31;100005.45;;;15.59;59.91
50590;BME280;36547;50.514;30.840;2023-05-23T04:28:34;100002.78;;;15.59;59.79
50590;BME280;36547;50.514;30.840;2023-05-23T04:29:36;99999.13;;;15.60;59.91
50590;BME280;36547;50.514;30.840;2023-05-23T04:30:39;100003.52;;;15.61;59.85
50590;BME280;36547;50.514;30.840;2023-05-23T04:31:42;99998.91;;;15.63;59.98
50590;BME280;36547;50.514;30.840;2023-05-23T04:32:44;99998.91;;;15.63;60.50
50590;BME280;36547;50.514;30.840;2023-05-23T04:33:48;100003.19;;;15.65;60.26
50590;BME280;36547;50.514;30.840;2023-05-23T04:34:50;99997.72;;;15.67;59.65
50590;BME280;36547;50.514;30.840;2023-05-23T04:35:53;100002.11;;;15.68;59.87
50590;BME280;36547;50.514;30.840;2023-05-23T04:36:56;100003.81;;;15.69;59.88
50590;BME280;36547;50.514;30.840;2023-05-23T04:37:59;100003.81;;;15.69;60.29
50590;BME280;36547;50.514;30.840;2023-05-23T04:39:06;100008.09;;;15.71;60.33
50590;BME280;36547;50.514;30.840;2023-05-23T04:40:11;100003.59;;;15.72;60.43
50590;BME280;36547;50.514;30.840;2023-05-23T04:41:18;100004.45;;;15.72;61.04
50590;BME280;36547;50.514;30.840;2023-05-23T04:42:23;100004.19;;;15.75;60.87
50590;BME280;36547;50.514;30.840;2023-05-23T04:43:30;100005.05;;;15.76;60.50
50590;BME280;36547;50.514;30.840;2023-05-23T04:44:35;100007.61;;;15.77;60.49
50590;BME280;36547;50.514;30.840;2023-05-23T04:45:39;100006.53;;;15.80;60.47
50590;BME280;36547;50.514;30.840;2023-05-23T04:47:01;100008.98;;;15.83;60.66
50590;BME280;36547;50.514;30.840;2023-05-23T04:48:05;100014.13;;;15.86;60.60
50590;BME280;36547;50.514;30.840;2023-05-23T04:49:13;100010.33;;;15.88;60.58
50590;BME280;36547;50.514;30.840;2023-05-23T04:50:16;100014.61;;;15.91;60.53
50590;BME280;36547;50.514;30.840;2023-05-23T04:51:19;100022.65;;;15.91;60.57
50590;BME280;36547;50.514;30.840;2023-05-23T04:52:26;100012.45;;;15.96;60.46
50590;BME280;36547;50.514;30.840;2023-05-23T04:53:29;100021.00;;;16.01;60.72
50590;BME280;36547;50.514;30.840;2023-05-23T04:54:32;100013.67;;;16.03;60.95
50590;BME280;36547;50.514;30.840;2023-05-23T04:55:37;100008.94;;;16.07;61.00
50590;BME280;36547;50.514;30.840;2023-05-23T04:56:41;100015.78;;;16.11;61.17
50590;BME280;36547;50.514;30.840;2023-05-23T04:57:44;100015.55;;;16.14;60.68
50590;BME280;36547;50.514;30.840;2023-05-23T04:58:47;100015.28;;;16.17;60.95
50590;BME280;36547;50.514;30.840;2023-05-23T04:59:50;100014.20;;;16.19;60.38
50590;BME280;36547;50.514;30.840;2023-05-23T05:00:53;100006.90;;;16.21;60.41
50590;BME280;36547;50.514;30.840;2023-05-23T05:01:56;100015.69;;;16.23;60.30
50590;BME280;36547;50.514;30.840;2023-05-23T05:02:59;100015.45;;;16.26;60.35
50590;BME280;36547;50.514;30.840;2023-05-23T05:04:03;100012.39;;;16.31;60.41
50590;BME280;36547;50.514;30.840;2023-05-23T05:05:06;100012.28;;;16.33;60.44
50590;BME280;36547;50.514;30.840;2023-05-23T05:06:09;100011.93;;;16.37;60.50
50590;BME280;36547;50.514;30.840;2023-05-23T05:07:12;100016.20;;;16.40;60.36
50590;BME280;36547;50.514;30.840;2023-05-23T05:08:15;100018.66;;;16.43;59.69
50590;BME280;36547;50.514;30.840;2023-05-23T05:09:17;100020.10;;;16.47;59.83
50590;BME280;36547;50.514;30.840;2023-05-23T05:10:21;100020.84;;;16.49;60.04
50590;BME280;36547;50.514;30.840;2023-05-23T05:11:24;100022.31;;;16.53;60.12
50590;BME280;36547;50.514;30.840;2023-05-23T05:12:28;100023.91;;;16.55;59.62
50590;BME280;36547;50.514;30.840;2023-05-23T05:13:32;100016.48;;;16.59;59.17
50590;BME280;36547;50.514;30.840;2023-05-23T05:14:35;100018.05;;;16.61;59.29
50590;BME280;36547;50.514;30.840;2023-05-23T05:15:37;100028.45;;;16.66;59.16
50590;BME280;36547;50.514;30.840;2023-05-23T05:16:40;100023.95;;;16.67;58.64
50590;BME280;36547;50.514;30.840;2023-05-23T05:17:43;100022.63;;;16.72;58.46
50590;BME280;36547;50.514;30.840;2023-05-23T05:18:49;100020.64;;;16.74;58.43
50590;BME280;36547;50.514;30.840;2023-05-23T05:19:53;100022.11;;;16.78;58.73
50590;BME280;36547;50.514;30.840;2023-05-23T05:20:56;100033.47;;;16.82;58.50
50590;BME280;36547;50.514;30.840;2023-05-23T05:21:59;100034.94;;;16.86;58.58
50590;BME280;36547;50.514;30.840;2023-05-23T05:23:02;100029.30;;;16.89;58.55
50590;BME280;36547;50.514;30.840;2023-05-23T05:24:04;100025.41;;;16.93;58.41
50590;BME280;36547;50.514;30.840;2023-05-23T05:25:08;100030.42;;;16.98;59.10
50590;BME280;36547;50.514;30.840;2023-05-23T05:26:11;100029.20;;;17.02;58.90
50590;BME280;36547;50.514;30.840;2023-05-23T05:27:13;100030.64;;;17.06;58.35
50590;BME280;36547;50.514;30.840;2023-05-23T05:28:16;100026.73;;;17.10;58.23
50590;BME280;36547;50.514;30.840;2023-05-23T05:29:20;100023.69;;;17.14;58.33
50590;BME280;36547;50.514;30.840;2023-05-23T05:30:23;100025.12;;;17.18;58.20
50590;BME280;36547;50.514;30.840;2023-05-23T05:31:27;100025.74;;;17.22;57.88
50590;BME280;36547;50.514;30.840;2023-05-23T05:32:36;100025.50;;;17.25;58.07
50590;BME280;36547;50.514;30.840;2023-05-23T05:33:38;100025.25;;;17.28;57.98